Time;durP1;ratioP1;P1;durP2;ratioP2;P2;SDS_P1;SDS_P2;PMS_P1;PMS_P2;Temp;Humidity;BMP_temperature;BMP_pressure;BME280_temperature;BME280_humidity;BME280_pressure;Samples;Min_cycle;Max_cycle;Signal;HPM_P1;HPM_P2
2023/08/04 00:03:04;;;;;;;;;;;;;;;;;;5091712;27;19917;-69
2023/08/04 00:05:31;;;;;;;;;;;;;;;;;;5091244;28;19955;-69
2023/08/04 00:07:57;;;;;;;;;;;;;;;;;;5091432;28;20383;-69
2023/08/04 00:10:23;;;;;;;;;;;;;;;;;;5090821;28;20349;-69
2023/08/04 00:16:12;;;;;;;;;;;;;;;;;;5174074;27;20343;-69
2023/08/04 00:18:38;;;;;;;;;;;;;;;;;;5173515;27;19958;-69
2023/08/04 00:23:14;;;;;;;;;;;;;;;;;;5111785;27;19916;-68
2023/08/04 00:25:40;;;;;;;;;;;;;;;;;;5109915;28;20006;-69
2023/08/04 00:28:07;;;;;;;;;;;;;;;;;;5111590;28;19908;-68
2023/08/04 00:30:33;;;;;;;;;;;;;;;;;;5111692;28;19953;-69
2023/08/04 00:33:42;;;;;;;;;;;;;;;;;;5112366;27;20382;-69
2023/08/04 00:36:08;;;;;;;;;;;;;;;;;;5111657;28;20003;-69
2023/08/04 00:38:34;;;;;;;;;;;;;;;;;;5111237;28;19959;-69
2023/08/04 00:41:00;;;;;;;;;;;;;;;;;;5111582;28;19908;-69
2023/08/04 00:47:15;;;;;;;;;;;;;;;;;;5090873;27;20300;-68
2023/08/04 00:52:10;;;;;;;;;;;;;;;;;;5152860;27;20010;-68
2023/08/04 00:55:16;;;;;;;;;;;;;;;;;;5091850;28;19916;-68
2023/08/04 00:57:42;;;;;;;;;;;;;;;;;;5091326;28;20003;-68
2023/08/04 01:00:08;;;;;;;;;;;;;;;;;;5091075;28;19916;-68
2023/08/04 01:02:34;;;;;;;;;;;;;;;;;;5091286;28;19909;-70
2023/08/04 01:05:00;;;;;;;;;;;;;;;;;;5091383;28;19908;-69
2023/08/04 01:07:26;;;;;;;;;;;;;;;;;;5090754;28;19920;-70
2023/08/04 01:14:33;;;;;;;;;;;;;;;;;;5091061;27;19912;-69
2023/08/04 01:17:44;;;;;;;;;;;;;;;;;;5111714;27;19916;-69
2023/08/04 01:20:10;;;;;;;;;;;;;;;;;;5110085;28;20007;-70
2023/08/04 01:26:45;;;;;;;;;;;;;;;;;;5091372;27;19922;-68
2023/08/04 01:29:11;;;;;;;;;;;;;;;;;;5089639;28;19920;-69
2023/08/04 01:31:36;;;;;;;;;;;;;;;;;;5091216;28;19912;-68
2023/08/04 01:35:36;;;;;;;;;;;;;;;;;;5152447;27;20008;-69
2023/08/04 01:38:02;;;;;;;;;;;;;;;;;;5152870;27;19957;-68
2023/08/04 01:42:19;;;;;;;;;;;;;;;;;;5091444;27;19923;-69
2023/08/04 01:45:17;;;;;;;;;;;;;;;;;;5092199;28;19922;-69
2023/08/04 01:47:43;;;;;;;;;;;;;;;;;;5091361;28;20348;-69
2023/08/04 01:50:09;;;;;;;;;;;;;;;;;;5089574;28;19987;-69
2023/08/04 01:52:35;;;;;;;;;;;;;;;;;;5089932;28;20335;-70
2023/08/04 01:57:13;;;;;;;;;;;;;;;;;;5091078;27;20288;-70
2023/08/04 02:01:26;;;;;;;;;;;;;;;;;;5112558;27;19916;-69
2023/08/04 02:06:10;;;;;;;;;;;;;;;;;;5092055;27;19924;-68
2023/08/04 02:08:36;;;;;;;;;;;;;;;;;;5091299;28;20074;-68
2023/08/04 02:11:02;;;;;;;;;;;;;;;;;;5091002;28;19912;-70
2023/08/04 02:14:25;;;;;;;;;;;;;;;;;;5091549;27;19917;-71
2023/08/04 02:16:51;;;;;;;;;;;;;;;;;;5090897;28;20024;-68
2023/08/04 02:21:51;;;;;;;;;;;;;;;;;;5132537;27;20018;-68
2023/08/04 02:24:16;;;;;;;;;;;;;;;;;;5131555;28;19958;-68
2023/08/04 02:27:51;;;;;;;;;;;;;;;;;;5112263;27;19916;-70
2023/08/04 02:32:30;;;;;;;;;;;;;;;;;;5090975;28;19912;-68
2023/08/04 02:36:04;;;;;;;;;;;;;;;;;;5111695;27;19938;-68
2023/08/04 02:38:56;;;;;;;;;;;;;;;;;;5090986;27;19923;-68
2023/08/04 02:41:22;;;;;;;;;;;;;;;;;;5091293;28;19994;-68
2023/08/04 02:46:22;;;;;;;;;;;;;;;;;;5090939;27;20269;-68
2023/08/04 02:48:48;;;;;;;;;;;;;;;;;;5091817;28;19916;-68
2023/08/04 02:51:14;;;;;;;;;;;;;;;;;;5091271;28;19909;-68
2023/08/04 02:53:40;;;;;;;;;;;;;;;;;;5090804;28;20003;-68
2023/08/04 02:56:06;;;;;;;;;;;;;;;;;;5091081;28;19952;-68
2023/08/04 03:00:57;;;;;;;;;;;;;;;;;;5091494;28;20377;-68
2023/08/04 03:06:51;;;;;;;;;;;;;;;;;;5091268;27;19916;-68
2023/08/04 03:10:25;;;;;;;;;;;;;;;;;;5091606;27;19917;-68
2023/08/04 03:16:32;;;;;;;;;;;;;;;;;;5091487;27;19923;-68
2023/08/04 03:18:58;;;;;;;;;;;;;;;;;;5091295;28;20003;-68
2023/08/04 03:21:23;;;;;;;;;;;;;;;;;;5091004;28;20272;-68
2023/08/04 03:23:49;;;;;;;;;;;;;;;;;;5091183;28;19908;-68
2023/08/04 03:26:15;;;;;;;;;;;;;;;;;;5091102;28;19915;-68
2023/08/04 03:30:54;;;;;;;;;;;;;;;;;;5174571;27;19922;-68
2023/08/04 03:33:20;;;;;;;;;;;;;;;;;;5174040;27;19991;-68
2023/08/04 03:36:01;;;;;;;;;;;;;;;;;;5090988;28;19917;-68
2023/08/04 03:38:27;;;;;;;;;;;;;;;;;;5089971;28;19912;-68
2023/08/04 03:44:10;;;;;;;;;;;;;;;;;;5112029;27;19922;-69
2023/08/04 03:46:36;;;;;;;;;;;;;;;;;;5111684;28;20010;-69
2023/08/04 03:55:50;;;;;;;;;;;;;;;;;;5091331;27;19917;-68
2023/08/04 03:58:16;;;;;;;;;;;;;;;;;;5091768;28;20317;-68
2023/08/04 04:00:42;;;;;;;;;;;;;;;;;;5091362;28;19916;-68
2023/08/04 04:03:08;;;;;;;;;;;;;;;;;;5089479;28;19908;-68
2023/08/04 04:07:33;;;;;;;;;;;;;;;;;;5174054;27;19918;-68
2023/08/04 04:09:58;;;;;;;;;;;;;;;;;;5173233;27;19914;-68
2023/08/04 04:12:24;;;;;;;;;;;;;;;;;;5173534;27;19907;-69
2023/08/04 04:14:50;;;;;;;;;;;;;;;;;;5173607;27;19917;-69
2023/08/04 04:17:17;;;;;;;;;;;;;;;;;;5154420;27;19907;-69
2023/08/04 04:19:43;;;;;;;;;;;;;;;;;;5173436;27;19907;-69
2023/08/04 04:24:12;;;;;;;;;;;;;;;;;;5090947;27;19938;-69
2023/08/04 04:27:35;;;;;;;;;;;;;;;;;;5092117;27;20296;-68
2023/08/04 04:30:01;;;;;;;;;;;;;;;;;;5091285;28;20011;-69
2023/08/04 04:34:25;;;;;;;;;;;;;;;;;;5091990;27;19920;-68
2023/08/04 04:40:22;;;;;;;;;;;;;;;;;;5112369;27;20357;-68
2023/08/04 04:42:48;;;;;;;;;;;;;;;;;;5111660;28;20004;-68
2023/08/04 04:47:31;;;;;;;;;;;;;;;;;;5111946;27;20295;-68
2023/08/04 04:49:57;;;;;;;;;;;;;;;;;;5111630;28;19935;-69
2023/08/04 04:55:26;;;;;;;;;;;;;;;;;;5092065;28;19939;-69
2023/08/04 04:59:06;;;;;;;;;;;;;;;;;;5091387;27;19923;-68
2023/08/04 05:01:32;;;;;;;;;;;;;;;;;;5091258;28;20007;-69
2023/08/04 05:04:15;;;;;;;;;;;;;;;;;;5092065;28;20373;-68
2023/08/04 05:06:41;;;;;;;;;;;;;;;;;;5091137;28;20008;-68
2023/08/04 05:09:07;;;;;;;;;;;;;;;;;;5091149;28;20012;-68
2023/08/04 05:11:33;;;;;;;;;;;;;;;;;;5091267;28;19913;-68
2023/08/04 05:13:59;;;;;;;;;;;;;;;;;;5090808;28;19915;-68
2023/08/04 05:18:40;;;;;;;;;;;;;;;;;;5091793;27;20356;-70
2023/08/04 05:23:59;;;;;;;;;;;;;;;;;;5091420;27;19916;-68
2023/08/04 05:26:48;;;;;;;;;;;;;;;;;;5091198;27;19916;-68
2023/08/04 05:29:13;;;;;;;;;;;;;;;;;;5091298;28;19913;-69
2023/08/04 05:31:39;;;;;;;;;;;;;;;;;;5091475;28;20365;-68
2023/08/04 05:34:05;;;;;;;;;;;;;;;;;;5091227;28;20374;-69
2023/08/04 05:36:31;;;;;;;;;;;;;;;;;;5089777;28;19909;-69
2023/08/04 05:38:57;;;;;;;;;;;;;;;;;;5091123;28;19980;-69
2023/08/04 05:41:23;;;;;;;;;;;;;;;;;;5090670;28;19908;-69
2023/08/04 05:43:49;;;;;;;;;;;;;;;;;;5089633;28;19908;-69
2023/08/04 05:47:31;;;;;;;;;;;;;;;;;;5091204;28;19916;-69
2023/08/04 05:49:57;;;;;;;;;;;;;;;;;;5089906;28;19912;-69
2023/08/04 05:52:23;;;;;;;;;;;;;;;;;;5091241;28;19909;-69
2023/08/04 05:54:48;;;;;;;;;;;;;;;;;;5089484;28;19918;-69
2023/08/04 05:57:14;;;;;;;;;;;;;;;;;;5091232;28;19915;-69
2023/08/04 05:59:40;;;;;;;;;;;;;;;;;;5091321;28;19913;-69
2023/08/04 06:02:06;;;;;;;;;;;;;;;;;;5090600;28;20304;-69
2023/08/04 06:04:32;;;;;;;;;;;;;;;;;;5090919;28;19916;-69
2023/08/04 06:06:58;;;;;;;;;;;;;;;;;;5090868;28;19917;-70
2023/08/04 06:09:24;;;;;;;;;;;;;;;;;;5090501;28;19908;-69
2023/08/04 06:11:50;;;;;;;;;;;;;;;;;;5090820;28;19958;-69
2023/08/04 06:14:16;;;;;;;;;;;;;;;;;;5089490;28;19908;-69
2023/08/04 06:16:42;;;;;;;;;;;;;;;;;;5090597;28;19914;-69
2023/08/04 06:19:08;;;;;;;;;;;;;;;;;;5089417;28;19908;-69
2023/08/04 06:23:49;;;;;;;;;;;;;;;;;;5091180;28;20285;-68
2023/08/04 06:26:15;;;;;;;;;;;;;;;;;;5091211;28;20006;-68
2023/08/04 06:28:41;;;;;;;;;;;;;;;;;;5089973;28;19908;-69
2023/08/04 06:31:07;;;;;;;;;;;;;;;;;;5090917;28;19912;-69
2023/08/04 06:33:33;;;;;;;;;;;;;;;;;;5091113;28;19908;-69
2023/08/04 06:35:59;;;;;;;;;;;;;;;;;;5089754;28;19915;-68
2023/08/04 06:38:24;;;;;;;;;;;;;;;;;;5090648;28;19909;-69
2023/08/04 06:40:50;;;;;;;;;;;;;;;;;;5091212;28;19915;-69
2023/08/04 06:43:16;;;;;;;;;;;;;;;;;;5090944;28;20011;-69
2023/08/04 06:45:42;;;;;;;;;;;;;;;;;;5090549;28;19908;-69
2023/08/04 06:48:08;;;;;;;;;;;;;;;;;;5090904;28;19908;-69
2023/08/04 06:50:34;;;;;;;;;;;;;;;;;;5090849;28;19912;-69
2023/08/04 06:53:00;;;;;;;;;;;;;;;;;;5090440;28;19908;-69
2023/08/04 06:55:26;;;;;;;;;;;;;;;;;;5090808;28;20012;-69
2023/08/04 06:57:52;;;;;;;;;;;;;;;;;;5086363;28;19914;-69
2023/08/04 07:00:18;;;;;;;;;;;;;;;;;;5090574;28;19909;-69
2023/08/04 07:02:44;;;;;;;;;;;;;;;;;;5090704;28;19917;-69
2023/08/04 07:05:10;;;;;;;;;;;;;;;;;;5089636;28;19916;-68
2023/08/04 07:07:36;;;;;;;;;;;;;;;;;;5090305;28;19908;-68
2023/08/04 07:10:03;;;;;;;;;;;;;;;;;;5090258;28;19995;-67
2023/08/04 07:12:29;;;;;;;;;;;;;;;;;;5089814;28;19909;-68
2023/08/04 07:14:55;;;;;;;;;;;;;;;;;;5090046;28;19913;-68
2023/08/04 07:17:21;;;;;;;;;;;;;;;;;;5090291;28;19923;-68
2023/08/04 07:19:47;;;;;;;;;;;;;;;;;;5088471;28;19931;-67
2023/08/04 07:22:13;;;;;;;;;;;;;;;;;;5097371;28;19920;-67
2023/08/04 07:24:39;;;;;;;;;;;;;;;;;;5110346;28;20391;-67
2023/08/04 07:27:05;;;;;;;;;;;;;;;;;;5109817;28;20287;-67
2023/08/04 07:30:49;;;;;;;;;;;;;;;;;;5090220;28;19916;-67
2023/08/04 07:33:15;;;;;;;;;;;;;;;;;;5090636;28;20030;-67
2023/08/04 07:35:41;;;;;;;;;;;;;;;;;;5091076;28;20403;-67
2023/08/04 07:38:07;;;;;;;;;;;;;;;;;;5090957;28;20436;-67
2023/08/04 07:40:33;;;;;;;;;;;;;;;;;;5090475;28;20285;-68
2023/08/04 07:42:59;;;;;;;;;;;;;;;;;;5090865;28;19913;-67
2023/08/04 07:45:24;;;;;;;;;;;;;;;;;;5090759;28;19909;-67
2023/08/04 07:47:50;;;;;;;;;;;;;;;;;;5089086;28;19908;-67
2023/08/04 07:50:16;;;;;;;;;;;;;;;;;;5090872;28;20015;-67
2023/08/04 07:52:42;;;;;;;;;;;;;;;;;;5090669;28;19909;-67
2023/08/04 07:55:08;;;;;;;;;;;;;;;;;;5090140;28;19913;-67
2023/08/04 07:57:34;;;;;;;;;;;;;;;;;;5090521;28;19909;-67
2023/08/04 08:00:00;;;;;;;;;;;;;;;;;;5090426;28;19962;-67
2023/08/04 08:02:26;;;;;;;;;;;;;;;;;;5088872;28;19909;-67
2023/08/04 08:04:53;;;;;;;;;;;;;;;;;;5090466;28;19915;-67
2023/08/04 08:07:19;;;;;;;;;;;;;;;;;;5090417;28;19912;-68
2023/08/04 08:09:45;;;;;;;;;;;;;;;;;;5089912;28;19965;-67
2023/08/04 08:12:11;;;;;;;;;;;;;;;;;;5090361;28;19913;-67
2023/08/04 08:14:37;;;;;;;;;;;;;;;;;;5090238;28;19948;-67
2023/08/04 08:17:03;;;;;;;;;;;;;;;;;;5089731;28;19908;-67
2023/08/04 08:19:29;;;;;;;;;;;;;;;;;;5088864;28;20300;-67
2023/08/04 08:21:55;;;;;;;;;;;;;;;;;;5089222;28;19908;-67
2023/08/04 08:24:21;;;;;;;;;;;;;;;;;;5088457;28;20365;-66
2023/08/04 08:26:47;;;;;;;;;;;;;;;;;;5089872;28;19908;-66
2023/08/04 08:29:13;;;;;;;;;;;;;;;;;;5096612;28;19972;-66
2023/08/04 08:31:39;;;;;;;;;;;;;;;;;;5110233;28;19912;-66
2023/08/04 08:34:05;;;;;;;;;;;;;;;;;;5110294;28;19991;-66
2023/08/04 08:36:31;;;;;;;;;;;;;;;;;;5109839;28;19980;-67
2023/08/04 08:38:57;;;;;;;;;;;;;;;;;;5110138;28;19912;-66
2023/08/04 08:41:23;;;;;;;;;;;;;;;;;;5100728;28;19909;-66
2023/08/04 08:43:49;;;;;;;;;;;;;;;;;;5096135;28;19919;-66
2023/08/04 08:46:15;;;;;;;;;;;;;;;;;;5096818;28;20288;-66
2023/08/04 08:48:41;;;;;;;;;;;;;;;;;;5096301;28;20344;-66
2023/08/04 08:51:07;;;;;;;;;;;;;;;;;;5094366;28;19935;-66
2023/08/04 08:53:33;;;;;;;;;;;;;;;;;;5096510;28;19959;-69
2023/08/04 08:55:59;;;;;;;;;;;;;;;;;;5096726;28;19912;-69
2023/08/04 08:58:25;;;;;;;;;;;;;;;;;;5096062;28;19909;-69
2023/08/04 09:00:51;;;;;;;;;;;;;;;;;;5096331;28;19944;-69
2023/08/04 09:03:17;;;;;;;;;;;;;;;;;;5096254;28;19955;-72
2023/08/04 09:05:43;;;;;;;;;;;;;;;;;;5094542;28;19909;-70
2023/08/04 09:08:09;;;;;;;;;;;;;;;;;;5096213;28;19943;-70
2023/08/04 09:10:37;;;;;;;;;;;;;;;;;;5096120;28;20016;-69
2023/08/04 09:13:03;;;;;;;;;;;;;;;;;;5095868;28;19909;-70
2023/08/04 09:15:29;;;;;;;;;;;;;;;;;;5096097;28;20394;-70
2023/08/04 09:17:55;;;;;;;;;;;;;;;;;;5096323;28;20376;-70
2023/08/04 09:20:21;;;;;;;;;;;;;;;;;;5095635;28;20310;-69
2023/08/04 09:22:47;;;;;;;;;;;;;;;;;;5095981;28;19908;-70
2023/08/04 09:25:13;;;;;;;;;;;;;;;;;;5095874;28;19908;-70
2023/08/04 09:27:39;;;;;;;;;;;;;;;;;;5094095;28;20368;-70
2023/08/04 09:30:05;;;;;;;;;;;;;;;;;;5095583;28;19920;-70
2023/08/04 09:32:31;;;;;;;;;;;;;;;;;;5095390;28;19908;-70
2023/08/04 09:34:57;;;;;;;;;;;;;;;;;;5095739;28;19961;-70
2023/08/04 09:37:23;;;;;;;;;;;;;;;;;;5095720;28;19915;-70
2023/08/04 09:39:49;;;;;;;;;;;;;;;;;;5095302;28;19912;-70
2023/08/04 09:42:15;;;;;;;;;;;;;;;;;;5095582;28;20466;-70
2023/08/04 09:44:41;;;;;;;;;;;;;;;;;;5095913;28;19908;-70
2023/08/04 09:47:07;;;;;;;;;;;;;;;;;;5095387;28;20280;-70
2023/08/04 09:49:33;;;;;;;;;;;;;;;;;;5095378;28;19985;-70
2023/08/04 09:51:59;;;;;;;;;;;;;;;;;;5094767;28;19912;-70
2023/08/04 09:54:25;;;;;;;;;;;;;;;;;;5094622;28;19950;-70
2023/08/04 09:56:51;;;;;;;;;;;;;;;;;;5093960;28;19912;-70
2023/08/04 09:59:16;;;;;;;;;;;;;;;;;;5095244;28;20292;-70
2023/08/04 10:01:42;;;;;;;;;;;;;;;;;;5094833;28;19908;-70
2023/08/04 10:04:08;;;;;;;;;;;;;;;;;;5093909;28;20344;-70
2023/08/04 10:06:34;;;;;;;;;;;;;;;;;;5093824;28;19908;-69
2023/08/04 10:09:00;;;;;;;;;;;;;;;;;;5093317;28;19923;-70
2023/08/04 10:11:26;;;;;;;;;;;;;;;;;;5095465;28;19908;-70
2023/08/04 10:13:52;;;;;;;;;;;;;;;;;;5094999;28;19919;-70
2023/08/04 10:16:18;;;;;;;;;;;;;;;;;;5094506;28;20035;-70
2023/08/04 10:18:44;;;;;;;;;;;;;;;;;;5093592;28;19915;-69
2023/08/04 10:21:10;;;;;;;;;;;;;;;;;;5095090;28;19908;-69
2023/08/04 10:23:36;;;;;;;;;;;;;;;;;;5094420;28;19926;-69
2023/08/04 10:26:02;;;;;;;;;;;;;;;;;;5094778;28;19915;-69
2023/08/04 10:28:28;;;;;;;;;;;;;;;;;;5094305;28;19908;-69
2023/08/04 10:30:54;;;;;;;;;;;;;;;;;;5094386;28;19908;-70
2023/08/04 10:33:20;;;;;;;;;;;;;;;;;;5094617;28;20003;-70
2023/08/04 10:35:46;;;;;;;;;;;;;;;;;;5095000;28;20360;-70
2023/08/04 10:38:12;;;;;;;;;;;;;;;;;;5094206;28;19961;-70
2023/08/04 10:40:38;;;;;;;;;;;;;;;;;;5094723;28;19908;-70
2023/08/04 10:43:05;;;;;;;;;;;;;;;;;;5094123;28;19915;-71
2023/08/04 10:45:31;;;;;;;;;;;;;;;;;;5094661;28;20351;-70
2023/08/04 10:47:57;;;;;;;;;;;;;;;;;;5094370;28;19908;-70
2023/08/04 10:50:23;;;;;;;;;;;;;;;;;;5094275;28;19924;-70
2023/08/04 10:52:49;;;;;;;;;;;;;;;;;;5093025;28;20368;-71
2023/08/04 10:55:15;;;;;;;;;;;;;;;;;;5094343;28;20395;-71
2023/08/04 10:57:41;;;;;;;;;;;;;;;;;;5093927;28;19908;-71
2023/08/04 11:00:07;;;;;;;;;;;;;;;;;;5094146;28;19923;-71
2023/08/04 11:02:33;;;;;;;;;;;;;;;;;;5094118;28;19915;-71
2023/08/04 11:04:58;;;;;;;;;;;;;;;;;;5093659;28;19920;-71
2023/08/04 11:07:24;;;;;;;;;;;;;;;;;;5094114;28;19995;-71
2023/08/04 11:09:50;;;;;;;;;;;;;;;;;;5093864;28;20341;-70
2023/08/04 11:12:16;;;;;;;;;;;;;;;;;;5092267;28;19954;-71
2023/08/04 11:14:42;;;;;;;;;;;;;;;;;;5093991;28;19909;-71
2023/08/04 11:17:08;;;;;;;;;;;;;;;;;;5093935;28;19970;-71
2023/08/04 11:19:34;;;;;;;;;;;;;;;;;;5093584;28;19908;-71
2023/08/04 11:22:00;;;;;;;;;;;;;;;;;;5093932;28;19914;-71
2023/08/04 11:24:26;;;;;;;;;;;;;;;;;;5093929;28;19908;-69
2023/08/04 11:26:52;;;;;;;;;;;;;;;;;;5093413;28;19908;-70
2023/08/04 11:29:18;;;;;;;;;;;;;;;;;;5093633;28;19965;-70
2023/08/04 11:31:45;;;;;;;;;;;;;;;;;;5093873;28;19915;-70
2023/08/04 11:34:10;;;;;;;;;;;;;;;;;;5093438;28;19908;-70
2023/08/04 11:36:36;;;;;;;;;;;;;;;;;;5093706;28;19931;-69
2023/08/04 11:39:03;;;;;;;;;;;;;;;;;;5093707;28;19908;-71
2023/08/04 11:41:29;;;;;;;;;;;;;;;;;;5093300;28;20428;-71
2023/08/04 11:43:55;;;;;;;;;;;;;;;;;;5093980;28;19977;-69
2023/08/04 11:46:21;;;;;;;;;;;;;;;;;;5091949;28;19912;-70
2023/08/04 11:48:47;;;;;;;;;;;;;;;;;;5092193;28;19920;-70
2023/08/04 11:51:13;;;;;;;;;;;;;;;;;;5092266;28;19912;-70
2023/08/04 11:53:39;;;;;;;;;;;;;;;;;;5091814;28;20002;-70
2023/08/04 11:56:07;;;;;;;;;;;;;;;;;;5093604;28;19908;-69
2023/08/04 11:58:33;;;;;;;;;;;;;;;;;;5093517;28;19915;-69
2023/08/04 12:00:59;;;;;;;;;;;;;;;;;;5093155;28;19967;-69
2023/08/04 12:03:25;;;;;;;;;;;;;;;;;;5092287;28;20396;-69
2023/08/04 12:05:51;;;;;;;;;;;;;;;;;;5093469;28;19912;-70
2023/08/04 12:08:17;;;;;;;;;;;;;;;;;;5093213;28;19915;-70
2023/08/04 12:10:43;;;;;;;;;;;;;;;;;;5093453;28;20013;-70
2023/08/04 12:13:09;;;;;;;;;;;;;;;;;;5091972;28;19957;-70
2023/08/04 12:15:35;;;;;;;;;;;;;;;;;;5093535;28;19908;-71
2023/08/04 12:18:01;;;;;;;;;;;;;;;;;;5097232;28;19908;-70
2023/08/04 12:20:27;;;;;;;;;;;;;;;;;;5097147;28;19908;-69
2023/08/04 12:22:53;;;;;;;;;;;;;;;;;;5096827;28;19912;-69
2023/08/04 12:25:19;;;;;;;;;;;;;;;;;;5097161;28;19912;-69
2023/08/04 12:27:45;;;;;;;;;;;;;;;;;;5097055;28;19915;-69
2023/08/04 12:30:11;;;;;;;;;;;;;;;;;;5096387;28;19927;-70
2023/08/04 12:32:37;;;;;;;;;;;;;;;;;;5095600;28;20348;-70
2023/08/04 12:35:04;;;;;;;;;;;;;;;;;;5096913;28;19908;-70
2023/08/04 12:37:30;;;;;;;;;;;;;;;;;;5096521;28;19915;-70
2023/08/04 12:39:56;;;;;;;;;;;;;;;;;;5096883;28;19952;-70
2023/08/04 12:42:22;;;;;;;;;;;;;;;;;;5096693;28;19954;-70
2023/08/04 12:44:48;;;;;;;;;;;;;;;;;;5096638;28;19947;-70
2023/08/04 12:47:13;;;;;;;;;;;;;;;;;;5096991;28;19908;-71
2023/08/04 12:49:39;;;;;;;;;;;;;;;;;;5096176;28;20007;-70
2023/08/04 12:52:05;;;;;;;;;;;;;;;;;;5096568;28;20360;-71
2023/08/04 12:54:31;;;;;;;;;;;;;;;;;;5096715;28;19961;-70
2023/08/04 12:56:57;;;;;;;;;;;;;;;;;;5096403;28;19908;-71
2023/08/04 12:59:23;;;;;;;;;;;;;;;;;;5096573;28;20330;-70
2023/08/04 13:01:49;;;;;;;;;;;;;;;;;;5096342;28;19911;-70
2023/08/04 13:04:15;;;;;;;;;;;;;;;;;;5095962;28;19955;-70
2023/08/04 13:06:41;;;;;;;;;;;;;;;;;;5095057;28;19962;-70
2023/08/04 13:09:07;;;;;;;;;;;;;;;;;;5096168;28;19918;-71
2023/08/04 13:11:33;;;;;;;;;;;;;;;;;;5096014;28;19912;-70
2023/08/04 13:13:59;;;;;;;;;;;;;;;;;;5096240;28;19912;-70
2023/08/04 13:16:25;;;;;;;;;;;;;;;;;;5096092;28;19958;-69
2023/08/04 13:18:52;;;;;;;;;;;;;;;;;;5095709;28;19923;-70
2023/08/04 13:21:18;;;;;;;;;;;;;;;;;;5096099;28;19960;-70
2023/08/04 13:23:44;;;;;;;;;;;;;;;;;;5096022;28;19912;-70
2023/08/04 13:26:10;;;;;;;;;;;;;;;;;;5095614;28;20008;-70
2023/08/04 13:28:36;;;;;;;;;;;;;;;;;;5095528;28;19912;-69
2023/08/04 13:31:05;;;;;;;;;;;;;;;;;;5096202;28;19908;-72
2023/08/04 13:33:31;;;;;;;;;;;;;;;;;;5095423;28;19915;-71
2023/08/04 13:35:57;;;;;;;;;;;;;;;;;;5096276;28;20361;-70
2023/08/04 13:38:23;;;;;;;;;;;;;;;;;;5095771;28;19908;-71
2023/08/04 13:40:49;;;;;;;;;;;;;;;;;;5093975;28;19919;-70
2023/08/04 13:43:15;;;;;;;;;;;;;;;;;;5094328;28;19908;-71
2023/08/04 13:45:41;;;;;;;;;;;;;;;;;;5095483;28;20424;-70
2023/08/04 13:48:07;;;;;;;;;;;;;;;;;;5095706;28;19947;-70
2023/08/04 13:50:33;;;;;;;;;;;;;;;;;;5095442;28;19916;-70
2023/08/04 13:52:59;;;;;;;;;;;;;;;;;;5095010;28;19969;-70
2023/08/04 13:55:24;;;;;;;;;;;;;;;;;;5095394;28;20380;-70
2023/08/04 13:57:51;;;;;;;;;;;;;;;;;;5095489;28;20360;-70
2023/08/04 14:00:17;;;;;;;;;;;;;;;;;;5094872;28;19908;-70
2023/08/04 14:02:43;;;;;;;;;;;;;;;;;;5095146;28;19908;-70
2023/08/04 14:05:09;;;;;;;;;;;;;;;;;;5095102;28;19930;-69
2023/08/04 14:07:37;;;;;;;;;;;;;;;;;;5094581;28;19908;-70
2023/08/04 14:10:03;;;;;;;;;;;;;;;;;;5094963;28;19916;-71
2023/08/04 14:12:32;;;;;;;;;;;;;;;;;;5095000;28;19920;-70
2023/08/04 14:14:57;;;;;;;;;;;;;;;;;;5094838;28;19966;-70
2023/08/04 14:17:24;;;;;;;;;;;;;;;;;;5095006;28;19939;-70
2023/08/04 14:19:50;;;;;;;;;;;;;;;;;;5094922;28;19951;-70
2023/08/04 14:22:16;;;;;;;;;;;;;;;;;;5094632;28;19908;-69
2023/08/04 14:24:42;;;;;;;;;;;;;;;;;;5094613;28;19961;-70
2023/08/04 14:27:08;;;;;;;;;;;;;;;;;;5094633;28;19908;-70
2023/08/04 14:29:34;;;;;;;;;;;;;;;;;;5094117;28;19990;-69
2023/08/04 14:32:00;;;;;;;;;;;;;;;;;;5094629;28;19991;-70
2023/08/04 14:34:26;;;;;;;;;;;;;;;;;;5094678;28;19908;-70
2023/08/04 14:36:53;;;;;;;;;;;;;;;;;;5094171;28;19908;-70
2023/08/04 14:39:19;;;;;;;;;;;;;;;;;;5092714;28;19912;-69
2023/08/04 14:41:44;;;;;;;;;;;;;;;;;;5093610;28;20261;-69
2023/08/04 14:44:11;;;;;;;;;;;;;;;;;;5094064;28;19915;-72
2023/08/04 14:46:37;;;;;;;;;;;;;;;;;;5094375;28;20423;-69
2023/08/04 14:49:03;;;;;;;;;;;;;;;;;;5092669;28;20003;-70
2023/08/04 14:51:34;;;;;;;;;;;;;;;;;;5094241;28;20015;-70
2023/08/04 14:54:00;;;;;;;;;;;;;;;;;;5094310;28;19969;-70
2023/08/04 14:56:26;;;;;;;;;;;;;;;;;;5093843;28;20360;-71
2023/08/04 14:58:52;;;;;;;;;;;;;;;;;;5094162;28;20396;-71
2023/08/04 15:01:18;;;;;;;;;;;;;;;;;;5094400;28;19907;-70
2023/08/04 15:03:44;;;;;;;;;;;;;;;;;;5092559;28;20288;-70
2023/08/04 15:06:10;;;;;;;;;;;;;;;;;;5092868;28;19912;-69
2023/08/04 15:08:36;;;;;;;;;;;;;;;;;;5094078;28;19912;-70
2023/08/04 15:11:02;;;;;;;;;;;;;;;;;;5093653;28;19998;-70
2023/08/04 15:13:28;;;;;;;;;;;;;;;;;;5094003;28;20005;-70
2023/08/04 15:15:54;;;;;;;;;;;;;;;;;;5094147;28;19908;-70
2023/08/04 15:18:20;;;;;;;;;;;;;;;;;;5093593;28;19908;-70
2023/08/04 15:20:46;;;;;;;;;;;;;;;;;;5093987;28;19940;-70
2023/08/04 15:23:12;;;;;;;;;;;;;;;;;;5092594;28;19922;-70
2023/08/04 15:25:38;;;;;;;;;;;;;;;;;;5093584;28;19908;-70
2023/08/04 15:28:04;;;;;;;;;;;;;;;;;;5093798;28;19908;-71
2023/08/04 15:30:30;;;;;;;;;;;;;;;;;;5093583;28;19920;-70
2023/08/04 15:32:56;;;;;;;;;;;;;;;;;;5093454;28;19909;-70
2023/08/04 15:35:23;;;;;;;;;;;;;;;;;;5093722;28;19915;-71
2023/08/04 15:37:48;;;;;;;;;;;;;;;;;;5093942;28;19912;-70
2023/08/04 15:40:14;;;;;;;;;;;;;;;;;;5093328;28;19942;-70
2023/08/04 15:42:40;;;;;;;;;;;;;;;;;;5093693;28;19908;-71
2023/08/04 15:45:06;;;;;;;;;;;;;;;;;;5093741;28;20003;-70
2023/08/04 15:47:34;;;;;;;;;;;;;;;;;;5093268;28;19915;-71
2023/08/04 15:50:00;;;;;;;;;;;;;;;;;;5093539;28;19916;-71
2023/08/04 15:52:26;;;;;;;;;;;;;;;;;;5095684;28;19915;-70
2023/08/04 15:54:52;;;;;;;;;;;;;;;;;;5097803;28;19908;-71
2023/08/04 15:57:18;;;;;;;;;;;;;;;;;;5097608;28;19908;-70
2023/08/04 15:59:44;;;;;;;;;;;;;;;;;;5095995;28;20361;-70
2023/08/04 16:02:10;;;;;;;;;;;;;;;;;;5096276;28;20288;-69
2023/08/04 16:04:36;;;;;;;;;;;;;;;;;;5097422;28;19937;-69
2023/08/04 16:07:02;;;;;;;;;;;;;;;;;;5097082;28;19931;-70
2023/08/04 16:09:28;;;;;;;;;;;;;;;;;;5097361;28;20395;-70
2023/08/04 16:11:54;;;;;;;;;;;;;;;;;;5096158;28;19961;-69
2023/08/04 16:14:20;;;;;;;;;;;;;;;;;;5097052;28;19912;-70
2023/08/04 16:16:46;;;;;;;;;;;;;;;;;;5096017;28;20347;-70
2023/08/04 16:19:12;;;;;;;;;;;;;;;;;;5097264;28;20287;-70
2023/08/04 16:21:38;;;;;;;;;;;;;;;;;;5096863;28;19908;-70
2023/08/04 16:24:04;;;;;;;;;;;;;;;;;;5097415;28;19908;-71
2023/08/04 16:26:31;;;;;;;;;;;;;;;;;;5097049;28;19908;-70
2023/08/04 16:28:57;;;;;;;;;;;;;;;;;;5096437;28;19912;-71
2023/08/04 16:31:23;;;;;;;;;;;;;;;;;;5095688;28;19991;-71
2023/08/04 16:33:49;;;;;;;;;;;;;;;;;;5097019;28;20310;-70
2023/08/04 16:36:15;;;;;;;;;;;;;;;;;;5096667;28;19912;-70
2023/08/04 16:38:41;;;;;;;;;;;;;;;;;;5096912;28;19982;-69
2023/08/04 16:41:07;;;;;;;;;;;;;;;;;;5095483;28;20269;-70
2023/08/04 16:43:33;;;;;;;;;;;;;;;;;;5095112;28;20288;-69
2023/08/04 16:45:59;;;;;;;;;;;;;;;;;;5096672;28;19919;-70
2023/08/04 16:48:25;;;;;;;;;;;;;;;;;;5096658;28;20280;-69
2023/08/04 16:50:51;;;;;;;;;;;;;;;;;;5096095;28;20257;-69
2023/08/04 16:53:17;;;;;;;;;;;;;;;;;;5096529;28;20339;-69
2023/08/04 16:55:43;;;;;;;;;;;;;;;;;;5094822;28;19917;-69
2023/08/04 16:58:08;;;;;;;;;;;;;;;;;;5096477;28;19955;-70
2023/08/04 17:00:34;;;;;;;;;;;;;;;;;;5096756;28;20368;-70
2023/08/04 17:03:00;;;;;;;;;;;;;;;;;;5095600;28;20378;-70
2023/08/04 17:05:26;;;;;;;;;;;;;;;;;;5096364;28;19908;-70
2023/08/04 17:07:52;;;;;;;;;;;;;;;;;;5096539;28;19953;-70
2023/08/04 17:10:18;;;;;;;;;;;;;;;;;;5095864;28;19920;-70
2023/08/04 17:12:44;;;;;;;;;;;;;;;;;;5096256;28;19915;-70
2023/08/04 17:15:10;;;;;;;;;;;;;;;;;;5096161;28;19990;-70
2023/08/04 17:17:36;;;;;;;;;;;;;;;;;;5095833;28;20372;-69
2023/08/04 17:20:02;;;;;;;;;;;;;;;;;;5094882;28;20276;-69
2023/08/04 17:22:28;;;;;;;;;;;;;;;;;;5096153;28;19951;-69
2023/08/04 17:24:54;;;;;;;;;;;;;;;;;;5095530;28;19923;-69
2023/08/04 17:27:20;;;;;;;;;;;;;;;;;;5096289;28;19908;-70
2023/08/04 17:29:46;;;;;;;;;;;;;;;;;;5095676;28;20415;-69
2023/08/04 17:32:12;;;;;;;;;;;;;;;;;;5095912;28;20287;-70
2023/08/04 17:34:38;;;;;;;;;;;;;;;;;;5095782;28;19908;-69
2023/08/04 17:37:04;;;;;;;;;;;;;;;;;;5094476;28;19908;-69
2023/08/04 17:39:30;;;;;;;;;;;;;;;;;;5095276;28;19939;-69
2023/08/04 17:41:56;;;;;;;;;;;;;;;;;;5095641;28;19908;-69
2023/08/04 17:44:22;;;;;;;;;;;;;;;;;;5095618;28;19908;-69
2023/08/04 17:46:48;;;;;;;;;;;;;;;;;;5095020;28;20288;-69
2023/08/04 17:49:15;;;;;;;;;;;;;;;;;;5095394;28;19964;-69
2023/08/04 17:51:41;;;;;;;;;;;;;;;;;;5095473;28;20284;-69
2023/08/04 17:54:07;;;;;;;;;;;;;;;;;;5093693;28;19908;-70
2023/08/04 17:56:33;;;;;;;;;;;;;;;;;;5095264;28;19908;-69
2023/08/04 17:58:59;;;;;;;;;;;;;;;;;;5093557;28;19965;-69
2023/08/04 18:01:25;;;;;;;;;;;;;;;;;;5095064;28;19968;-70
2023/08/04 18:03:51;;;;;;;;;;;;;;;;;;5093604;28;19908;-70
2023/08/04 18:06:17;;;;;;;;;;;;;;;;;;5094601;28;19931;-70
2023/08/04 18:08:43;;;;;;;;;;;;;;;;;;5094857;28;20000;-68
2023/08/04 18:11:09;;;;;;;;;;;;;;;;;;5095270;28;19911;-70
2023/08/04 18:13:34;;;;;;;;;;;;;;;;;;5093789;28;19908;-70